sensor_id;sensor_type;location;lat;lon;timestamp;temperature;humidity
41256;DHT22;26989;45.524;10.938;2022-09-13T07:12:10;22.20;95.40
41256;DHT22;26989;45.524;10.938;2022-09-13T07:14:37;22.00;95.40
41256;DHT22;26989;45.524;10.938;2022-09-13T07:17:04;22.00;95.90
41256;DHT22;26989;45.524;10.938;2022-09-13T07:19:30;22.00;95.70
41256;DHT22;26989;45.524;10.938;2022-09-13T07:21:57;21.90;95.80
41256;DHT22;26989;45.524;10.938;2022-09-13T07:24:24;21.90;96.10
41256;DHT22;26989;45.524;10.938;2022-09-13T07:26:52;21.90;96.70
41256;DHT22;26989;45.524;10.938;2022-09-13T07:29:20;21.90;96.30
41256;DHT22;26989;45.524;10.938;2022-09-13T07:31:51;22.00;96.20
41256;DHT22;26989;45.524;10.938;2022-09-13T07:34:20;22.00;96.60
41256;DHT22;26989;45.524;10.938;2022-09-13T07:36:47;22.00;96.10
41256;DHT22;26989;45.524;10.938;2022-09-13T07:39:15;22.10;96.00
41256;DHT22;26989;45.524;10.938;2022-09-13T07:41:48;22.10;95.70
41256;DHT22;26989;45.524;10.938;2022-09-13T07:44:14;22.10;95.90
41256;DHT22;26989;45.524;10.938;2022-09-13T07:46:41;21.90;95.90
41256;DHT22;26989;45.524;10.938;2022-09-13T07:49:13;22.00;95.60
41256;DHT22;26989;45.524;10.938;2022-09-13T07:51:41;22.10;95.70
41256;DHT22;26989;45.524;10.938;2022-09-13T07:54:14;22.10;95.20
41256;DHT22;26989;45.524;10.938;2022-09-13T07:56:41;22.30;95.00
41256;DHT22;26989;45.524;10.938;2022-09-13T07:59:15;22.30;94.90
41256;DHT22;26989;45.524;10.938;2022-09-13T08:01:49;22.40;95.00
41256;DHT22;26989;45.524;10.938;2022-09-13T08:04:19;22.40;95.40
41256;DHT22;26989;45.524;10.938;2022-09-13T08:06:49;22.60;95.40
41256;DHT22;26989;45.524;10.938;2022-09-13T08:09:17;22.70;94.70
41256;DHT22;26989;45.524;10.938;2022-09-13T08:11:49;22.60;94.80
41256;DHT22;26989;45.524;10.938;2022-09-13T08:14:21;22.60;94.90
41256;DHT22;26989;45.524;10.938;2022-09-13T08:16:48;22.60;94.90
41256;DHT22;26989;45.524;10.938;2022-09-13T08:19:17;22.70;94.40
41256;DHT22;26989;45.524;10.938;2022-09-13T08:21:45;22.70;94.60
41256;DHT22;26989;45.524;10.938;2022-09-13T08:24:17;22.70;95.20
41256;DHT22;26989;45.524;10.938;2022-09-13T08:26:44;22.90;95.30
41256;DHT22;26989;45.524;10.938;2022-09-13T08:29:13;23.00;95.10
41256;DHT22;26989;45.524;10.938;2022-09-13T08:31:40;23.10;94.90
41256;DHT22;26989;45.524;10.938;2022-09-13T08:34:10;23.10;95.20
41256;DHT22;26989;45.524;10.938;2022-09-13T08:36:38;23.10;95.40
41256;DHT22;26989;45.524;10.938;2022-09-13T08:39:07;23.10;95.90
41256;DHT22;26989;45.524;10.938;2022-09-13T08:44:29;23.10;95.90
41256;DHT22;26989;45.524;10.938;2022-09-13T08:47:20;23.20;96.10
41256;DHT22;26989;45.524;10.938;2022-09-13T08:49:49;23.30;96.20
41256;DHT22;26989;45.524;10.938;2022-09-13T08:52:32;23.30;96.20
41256;DHT22;26989;45.524;10.938;2022-09-13T08:55:03;23.30;96.20
41256;DHT22;26989;45.524;10.938;2022-09-13T08:57:39;23.30;96.00
41256;DHT22;26989;45.524;10.938;2022-09-13T09:00:19;23.30;96.60
41256;DHT22;26989;45.524;10.938;2022-09-13T09:03:28;23.40;96.10
41256;DHT22;26989;45.524;10.938;2022-09-13T09:05:51;23.40;96.00
41256;DHT22;26989;45.524;10.938;2022-09-13T09:08:27;23.40;96.10
41256;DHT22;26989;45.524;10.938;2022-09-13T09:11:00;23.60;96.00
41256;DHT22;26989;45.524;10.938;2022-09-13T09:13:29;23.60;95.90
41256;DHT22;26989;45.524;10.938;2022-09-13T09:18:51;23.70;95.90
41256;DHT22;26989;45.524;10.938;2022-09-13T09:21:20;23.70;95.60
41256;DHT22;26989;45.524;10.938;2022-09-13T09:23:54;23.80;95.50
41256;DHT22;26989;45.524;10.938;2022-09-13T09:26:26;23.50;96.00
41256;DHT22;26989;45.524;10.938;2022-09-13T09:31:40;23.60;95.70
41256;DHT22;26989;45.524;10.938;2022-09-13T09:34:39;23.80;95.80
41256;DHT22;26989;45.524;10.938;2022-09-13T09:37:25;23.90;95.40
41256;DHT22;26989;45.524;10.938;2022-09-13T09:39:58;23.80;96.00
41256;DHT22;26989;45.524;10.938;2022-09-13T09:42:44;23.80;95.80
41256;DHT22;26989;45.524;10.938;2022-09-13T09:47:52;23.90;95.30
41256;DHT22;26989;45.524;10.938;2022-09-13T09:50:35;23.80;95.80
41256;DHT22;26989;45.524;10.938;2022-09-13T09:53:27;23.90;95.90
41256;DHT22;26989;45.524;10.938;2022-09-13T09:56:22;23.90;95.50
41256;DHT22;26989;45.524;10.938;2022-09-13T09:58:51;24.00;95.30
41256;DHT22;26989;45.524;10.938;2022-09-13T10:06:38;24.00;95.50
41256;DHT22;26989;45.524;10.938;2022-09-13T10:11:57;24.10;95.80
41256;DHT22;26989;45.524;10.938;2022-09-13T10:17:19;24.00;95.40
41256;DHT22;26989;45.524;10.938;2022-09-13T10:19:51;23.90;95.80
41256;DHT22;26989;45.524;10.938;2022-09-13T10:22:20;24.10;95.30
41256;DHT22;26989;45.524;10.938;2022-09-13T10:24:48;24.30;95.60
41256;DHT22;26989;45.524;10.938;2022-09-13T10:27:32;24.40;95.50
41256;DHT22;26989;45.524;10.938;2022-09-13T10:30:02;24.30;95.20
41256;DHT22;26989;45.524;10.938;2022-09-13T10:32:30;24.30;95.60
41256;DHT22;26989;45.524;10.938;2022-09-13T10:35:15;24.30;95.40
41256;DHT22;26989;45.524;10.938;2022-09-13T10:37:43;24.30;95.70
41256;DHT22;26989;45.524;10.938;2022-09-13T10:40:31;24.50;95.70
41256;DHT22;26989;45.524;10.938;2022-09-13T10:43:13;24.50;95.50
41256;DHT22;26989;45.524;10.938;2022-09-13T10:45:41;24.50;95.30
41256;DHT22;26989;45.524;10.938;2022-09-13T10:48:18;24.40;95.20
41256;DHT22;26989;45.524;10.938;2022-09-13T10:53:37;24.60;94.90
41256;DHT22;26989;45.524;10.938;2022-09-13T10:56:07;24.70;94.70
41256;DHT22;26989;45.524;10.938;2022-09-13T10:58:43;24.40;94.90
41256;DHT22;26989;45.524;10.938;2022-09-13T11:01:35;24.70;94.90
41256;DHT22;26989;45.524;10.938;2022-09-13T11:10:47;24.90;94.70
41256;DHT22;26989;45.524;10.938;2022-09-13T11:24:07;25.00;94.40
41256;DHT22;26989;45.524;10.938;2022-09-13T11:26:57;24.90;95.00
41256;DHT22;26989;45.524;10.938;2022-09-13T11:46:00;25.20;94.30
41256;DHT22;26989;45.524;10.938;2022-09-13T11:51:50;24.80;94.10
41256;DHT22;26989;45.524;10.938;2022-09-13T11:54:52;24.50;93.90
41256;DHT22;26989;45.524;10.938;2022-09-13T11:57:30;24.80;94.00
41256;DHT22;26989;45.524;10.938;2022-09-13T12:00:04;25.10;94.30
41256;DHT22;26989;45.524;10.938;2022-09-13T12:05:33;25.40;93.70
41256;DHT22;26989;45.524;10.938;2022-09-13T12:08:09;25.50;93.30
41256;DHT22;26989;45.524;10.938;2022-09-13T12:13:26;25.90;92.50
41256;DHT22;26989;45.524;10.938;2022-09-13T12:15:58;26.00;92.70
41256;DHT22;26989;45.524;10.938;2022-09-13T12:18:51;26.00;92.60
41256;DHT22;26989;45.524;10.938;2022-09-13T12:21:23;25.70;93.00
41256;DHT22;26989;45.524;10.938;2022-09-13T12:26:32;26.00;92.50
41256;DHT22;26989;45.524;10.938;2022-09-13T12:29:12;26.00;92.80
41256;DHT22;26989;45.524;10.938;2022-09-13T12:31:41;26.00;92.60
41256;DHT22;26989;45.524;10.938;2022-09-13T12:34:15;26.10;92.40
41256;DHT22;26989;45.524;10.938;2022-09-13T12:48:02;25.30;92.90
41256;DHT22;26989;45.524;10.938;2022-09-13T12:57:01;25.70;92.90
41256;DHT22;26989;45.524;10.938;2022-09-13T13:02:18;25.90;91.40
41256;DHT22;26989;45.524;10.938;2022-09-13T13:04:51;25.90;91.60
41256;DHT22;26989;45.524;10.938;2022-09-13T13:07:21;26.10;92.20
41256;DHT22;26989;45.524;10.938;2022-09-13T13:09:50;26.20;92.10
41256;DHT22;26989;45.524;10.938;2022-09-13T13:12:38;26.20;92.30
41256;DHT22;26989;45.524;10.938;2022-09-13T13:17:53;26.50;91.70
41256;DHT22;26989;45.524;10.938;2022-09-13T13:23:26;26.40;92.40
41256;DHT22;26989;45.524;10.938;2022-09-13T13:41:39;27.40;91.20
41256;DHT22;26989;45.524;10.938;2022-09-13T13:46:43;27.40;90.80
41256;DHT22;26989;45.524;10.938;2022-09-13T13:57:27;27.10;91.40
41256;DHT22;26989;45.524;10.938;2022-09-13T14:00:16;27.20;91.50
41256;DHT22;26989;45.524;10.938;2022-09-13T14:14:44;27.20;91.00
41256;DHT22;26989;45.524;10.938;2022-09-13T14:19:50;27.30;90.60
41256;DHT22;26989;45.524;10.938;2022-09-13T14:22:25;27.40;90.60
41256;DHT22;26989;45.524;10.938;2022-09-13T14:24:53;27.50;90.40
41256;DHT22;26989;45.524;10.938;2022-09-13T14:27:21;27.40;91.00
41256;DHT22;26989;45.524;10.938;2022-09-13T14:29:56;27.40;91.00
41256;DHT22;26989;45.524;10.938;2022-09-13T14:32:26;27.30;91.20
41256;DHT22;26989;45.524;10.938;2022-09-13T14:35:05;27.20;90.90
41256;DHT22;26989;45.524;10.938;2022-09-13T14:37:36;27.20;90.00
41256;DHT22;26989;45.524;10.938;2022-09-13T14:42:48;27.00;90.50
41256;DHT22;26989;45.524;10.938;2022-09-13T14:45:19;27.00;90.80
41256;DHT22;26989;45.524;10.938;2022-09-13T14:50:26;27.10;90.70
41256;DHT22;26989;45.524;10.938;2022-09-13T14:52:57;27.10;89.80
41256;DHT22;26989;45.524;10.938;2022-09-13T14:55:47;27.20;90.10
41256;DHT22;26989;45.524;10.938;2022-09-13T14:58:28;26.70;91.20
41256;DHT22;26989;45.524;10.938;2022-09-13T15:01:01;26.20;91.50
41256;DHT22;26989;45.524;10.938;2022-09-13T15:03:29;26.10;91.30
41256;DHT22;26989;45.524;10.938;2022-09-13T15:06:00;26.40;91.10
41256;DHT22;26989;45.524;10.938;2022-09-13T15:11:05;26.70;90.60
41256;DHT22;26989;45.524;10.938;2022-09-13T15:13:33;27.00;90.90
41256;DHT22;26989;45.524;10.938;2022-09-13T15:16:00;27.20;90.30
41256;DHT22;26989;45.524;10.938;2022-09-13T15:18:31;27.40;89.70
41256;DHT22;26989;45.524;10.938;2022-09-13T15:21:04;27.20;89.70
41256;DHT22;26989;45.524;10.938;2022-09-13T15:31:18;26.50;90.70
41256;DHT22;26989;45.524;10.938;2022-09-13T15:33:45;26.40;90.90
41256;DHT22;26989;45.524;10.938;2022-09-13T15:39:17;26.30;91.10
41256;DHT22;26989;45.524;10.938;2022-09-13T15:41:59;26.70;91.00
41256;DHT22;26989;45.524;10.938;2022-09-13T15:44:27;26.50;91.20
41256;DHT22;26989;45.524;10.938;2022-09-13T15:46:58;26.70;90.80
41256;DHT22;26989;45.524;10.938;2022-09-13T15:49:28;26.60;90.70
41256;DHT22;26989;45.524;10.938;2022-09-13T15:51:58;26.60;91.00
41256;DHT22;26989;45.524;10.938;2022-09-13T15:54:40;26.50;91.20
41256;DHT22;26989;45.524;10.938;2022-09-13T15:57:28;26.30;91.00
41256;DHT22;26989;45.524;10.938;2022-09-13T15:59:55;26.20;91.30
41256;DHT22;26989;45.524;10.938;2022-09-13T16:02:32;26.00;91.60
41256;DHT22;26989;45.524;10.938;2022-09-13T16:05:01;25.90;92.00
41256;DHT22;26989;45.524;10.938;2022-09-13T16:07:27;25.90;92.00
41256;DHT22;26989;45.524;10.938;2022-09-13T16:09:54;25.70;92.00
41256;DHT22;26989;45.524;10.938;2022-09-13T16:12:21;25.70;92.40
41256;DHT22;26989;45.524;10.938;2022-09-13T16:14:50;25.70;92.00
41256;DHT22;26989;45.524;10.938;2022-09-13T16:17:24;25.60;92.00
41256;DHT22;26989;45.524;10.938;2022-09-13T16:19:52;25.40;92.90
41256;DHT22;26989;45.524;10.938;2022-09-13T16:22:20;25.20;93.70
41256;DHT22;26989;45.524;10.938;2022-09-13T16:24:48;25.00;95.30
41256;DHT22;26989;45.524;10.938;2022-09-13T16:27:16;24.90;95.70
41256;DHT22;26989;45.524;10.938;2022-09-13T16:29:43;24.80;95.10
41256;DHT22;26989;45.524;10.938;2022-09-13T16:32:10;24.60;96.40
41256;DHT22;26989;45.524;10.938;2022-09-13T16:34:37;24.50;96.30
41256;DHT22;26989;45.524;10.938;2022-09-13T16:37:05;24.30;96.60
41256;DHT22;26989;45.524;10.938;2022-09-13T16:39:31;24.20;96.70
41256;DHT22;26989;45.524;10.938;2022-09-13T16:41:58;24.10;97.00
41256;DHT22;26989;45.524;10.938;2022-09-13T16:44:25;24.10;97.00
41256;DHT22;26989;45.524;10.938;2022-09-13T16:46:52;24.10;97.10
41256;DHT22;26989;45.524;10.938;2022-09-13T16:49:19;24.20;96.80
41256;DHT22;26989;45.524;10.938;2022-09-13T16:51:46;24.30;95.70
41256;DHT22;26989;45.524;10.938;2022-09-13T16:54:13;24.30;96.30
41256;DHT22;26989;45.524;10.938;2022-09-13T16:56:40;24.30;96.70
41256;DHT22;26989;45.524;10.938;2022-09-13T16:59:07;24.10;97.30
41256;DHT22;26989;45.524;10.938;2022-09-13T17:01:34;24.00;98.00
41256;DHT22;26989;45.524;10.938;2022-09-13T17:04:01;24.00;97.40
41256;DHT22;26989;45.524;10.938;2022-09-13T17:06:29;23.90;98.00
41256;DHT22;26989;45.524;10.938;2022-09-13T17:08:59;23.80;98.30
41256;DHT22;26989;45.524;10.938;2022-09-13T17:11:29;23.80;98.60
41256;DHT22;26989;45.524;10.938;2022-09-13T17:13:57;23.80;98.20
41256;DHT22;26989;45.524;10.938;2022-09-13T17:18:56;23.50;98.80
41256;DHT22;26989;45.524;10.938;2022-09-13T17:21:24;23.50;98.50
41256;DHT22;26989;45.524;10.938;2022-09-13T17:23:52;23.40;99.00
41256;DHT22;26989;45.524;10.938;2022-09-13T17:26:20;23.20;99.50
41256;DHT22;26989;45.524;10.938;2022-09-13T17:28:47;23.00;99.80
41256;DHT22;26989;45.524;10.938;2022-09-13T17:31:14;22.90;99.70
41256;DHT22;26989;45.524;10.938;2022-09-13T17:33:41;22.90;99.70
41256;DHT22;26989;45.524;10.938;2022-09-13T17:36:10;22.80;99.80
41256;DHT22;26989;45.524;10.938;2022-09-13T17:38:37;22.80;99.80
41256;DHT22;26989;45.524;10.938;2022-09-13T17:41:05;22.70;99.80
41256;DHT22;26989;45.524;10.938;2022-09-13T17:43:32;22.60;99.90
41256;DHT22;26989;45.524;10.938;2022-09-13T17:46:03;22.60;99.90
41256;DHT22;26989;45.524;10.938;2022-09-13T17:48:31;22.50;99.90
41256;DHT22;26989;45.524;10.938;2022-09-13T17:51:03;22.50;99.90
41256;DHT22;26989;45.524;10.938;2022-09-13T17:53:30;22.40;99.90
41256;DHT22;26989;45.524;10.938;2022-09-13T17:55:57;22.30;99.90
41256;DHT22;26989;45.524;10.938;2022-09-13T17:58:24;22.30;99.90
41256;DHT22;26989;45.524;10.938;2022-09-13T18:01:00;22.20;99.90
41256;DHT22;26989;45.524;10.938;2022-09-13T18:03:27;22.10;99.90
41256;DHT22;26989;45.524;10.938;2022-09-13T18:05:55;22.10;99.90
41256;DHT22;26989;45.524;10.938;2022-09-13T18:08:27;22.10;99.90
41256;DHT22;26989;45.524;10.938;2022-09-13T18:10:54;22.10;99.90
41256;DHT22;26989;45.524;10.938;2022-09-13T18:13:40;22.10;99.90
41256;DHT22;26989;45.524;10.938;2022-09-13T18:16:17;22.10;99.90
41256;DHT22;26989;45.524;10.938;2022-09-13T18:18:48;22.10;99.80
41256;DHT22;26989;45.524;10.938;2022-09-13T18:21:16;22.10;99.90
41256;DHT22;26989;45.524;10.938;2022-09-13T18:23:47;22.00;99.90
41256;DHT22;26989;45.524;10.938;2022-09-13T18:26:16;22.00;99.90
41256;DHT22;26989;45.524;10.938;2022-09-13T18:28:43;22.20;99.50
41256;DHT22;26989;45.524;10.938;2022-09-13T18:31:16;22.10;99.50
41256;DHT22;26989;45.524;10.938;2022-09-13T18:33:44;22.10;99.50
41256;DHT22;26989;45.524;10.938;2022-09-13T18:36:14;22.00;99.80
41256;DHT22;26989;45.524;10.938;2022-09-13T18:38:46;22.00;99.70
41256;DHT22;26989;45.524;10.938;2022-09-13T18:41:18;22.00;99.60
41256;DHT22;26989;45.524;10.938;2022-09-13T18:43:47;22.00;99.60
41256;DHT22;26989;45.524;10.938;2022-09-13T18:46:23;22.00;99.60
41256;DHT22;26989;45.524;10.938;2022-09-13T18:48:52;22.00;99.50
41256;DHT22;26989;45.524;10.938;2022-09-13T18:51:31;22.10;99.50
41256;DHT22;26989;45.524;10.938;2022-09-13T18:53:58;22.10;99.60
41256;DHT22;26989;45.524;10.938;2022-09-13T18:56:27;22.00;99.60
41256;DHT22;26989;45.524;10.938;2022-09-13T18:58:55;22.00;99.60
41256;DHT22;26989;45.524;10.938;2022-09-13T19:01:24;22.10;99.60
41256;DHT22;26989;45.524;10.938;2022-09-13T19:03:59;22.00;99.80
41256;DHT22;26989;45.524;10.938;2022-09-13T19:06:29;22.00;99.80
41256;DHT22;26989;45.524;10.938;2022-09-13T19:08:57;22.00;99.90
41256;DHT22;26989;45.524;10.938;2022-09-13T19:11:25;21.90;99.90
41256;DHT22;26989;45.524;10.938;2022-09-13T19:14:23;21.80;99.90
41256;DHT22;26989;45.524;10.938;2022-09-13T19:16:52;21.90;99.90
41256;DHT22;26989;45.524;10.938;2022-09-13T19:19:19;22.00;99.90
41256;DHT22;26989;45.524;10.938;2022-09-13T19:21:46;22.00;99.90
41256;DHT22;26989;45.524;10.938;2022-09-13T19:24:14;21.90;99.90
41256;DHT22;26989;45.524;10.938;2022-09-13T19:26:48;22.00;99.90
41256;DHT22;26989;45.524;10.938;2022-09-13T19:29:19;21.80;99.90
41256;DHT22;26989;45.524;10.938;2022-09-13T19:31:47;21.70;99.90
41256;DHT22;26989;45.524;10.938;2022-09-13T19:34:16;21.70;99.90
41256;DHT22;26989;45.524;10.938;2022-09-13T19:36:44;21.70;99.90
41256;DHT22;26989;45.524;10.938;2022-09-13T19:39:11;21.70;99.90
41256;DHT22;26989;45.524;10.938;2022-09-13T19:41:39;21.80;99.90
41256;DHT22;26989;45.524;10.938;2022-09-13T19:44:07;21.80;99.90
41256;DHT22;26989;45.524;10.938;2022-09-13T19:46:36;21.70;99.90
41256;DHT22;26989;45.524;10.938;2022-09-13T19:49:05;21.70;99.90
41256;DHT22;26989;45.524;10.938;2022-09-13T19:51:35;21.70;99.90
41256;DHT22;26989;45.524;10.938;2022-09-13T19:54:04;21.70;99.90
41256;DHT22;26989;45.524;10.938;2022-09-13T19:56:34;21.80;99.90
41256;DHT22;26989;45.524;10.938;2022-09-13T19:59:02;21.80;99.90
41256;DHT22;26989;45.524;10.938;2022-09-13T20:01:31;21.70;99.90
41256;DHT22;26989;45.524;10.938;2022-09-13T20:04:01;21.80;99.90
41256;DHT22;26989;45.524;10.938;2022-09-13T20:06:33;21.90;99.90
41256;DHT22;26989;45.524;10.938;2022-09-13T20:09:00;21.80;99.90
41256;DHT22;26989;45.524;10.938;2022-09-13T20:11:30;21.70;99.90
41256;DHT22;26989;45.524;10.938;2022-09-13T20:13:58;21.70;99.90
41256;DHT22;26989;45.524;10.938;2022-09-13T20:16:28;21.70;99.90
41256;DHT22;26989;45.524;10.938;2022-09-13T20:18:56;21.60;99.90
41256;DHT22;26989;45.524;10.938;2022-09-13T20:21:24;21.60;99.90
41256;DHT22;26989;45.524;10.938;2022-09-13T20:23:57;21.50;99.90
41256;DHT22;26989;45.524;10.938;2022-09-13T20:26:30;21.50;99.90
41256;DHT22;26989;45.524;10.938;2022-09-13T20:28:59;21.50;99.90
41256;DHT22;26989;45.524;10.938;2022-09-13T20:31:28;21.50;99.90
41256;DHT22;26989;45.524;10.938;2022-09-13T20:33:57;21.40;99.90
41256;DHT22;26989;45.524;10.938;2022-09-13T20:36:26;21.30;99.90
41256;DHT22;26989;45.524;10.938;2022-09-13T20:38:53;21.40;99.90
41256;DHT22;26989;45.524;10.938;2022-09-13T20:41:25;21.30;99.90
41256;DHT22;26989;45.524;10.938;2022-09-13T20:43:53;21.40;99.90
41256;DHT22;26989;45.524;10.938;2022-09-13T20:46:21;21.30;99.90
41256;DHT22;26989;45.524;10.938;2022-09-13T20:48:48;21.30;99.90
41256;DHT22;26989;45.524;10.938;2022-09-13T20:51:18;21.30;99.90
41256;DHT22;26989;45.524;10.938;2022-09-13T20:53:46;21.20;99.90
41256;DHT22;26989;45.524;10.938;2022-09-13T20:56:17;21.20;99.90
41256;DHT22;26989;45.524;10.938;2022-09-13T20:58:45;21.20;99.90
41256;DHT22;26989;45.524;10.938;2022-09-13T21:01:14;21.20;99.90
41256;DHT22;26989;45.524;10.938;2022-09-13T21:03:50;21.10;99.90
41256;DHT22;26989;45.524;10.938;2022-09-13T21:06:19;21.10;99.90
41256;DHT22;26989;45.524;10.938;2022-09-13T21:08:47;21.10;99.90
41256;DHT22;26989;45.524;10.938;2022-09-13T21:13:49;20.90;99.90
41256;DHT22;26989;45.524;10.938;2022-09-13T21:16:19;20.90;99.90
41256;DHT22;26989;45.524;10.938;2022-09-13T21:18:46;21.00;99.90
41256;DHT22;26989;45.524;10.938;2022-09-13T21:21:16;21.00;99.90
41256;DHT22;26989;45.524;10.938;2022-09-13T21:23:43;21.00;99.90
41256;DHT22;26989;45.524;10.938;2022-09-13T21:26:15;20.90;99.90
41256;DHT22;26989;45.524;10.938;2022-09-13T21:28:43;20.70;99.90
41256;DHT22;26989;45.524;10.938;2022-09-13T21:31:12;20.80;99.90
41256;DHT22;26989;45.524;10.938;2022-09-13T21:33:46;20.70;99.90
41256;DHT22;26989;45.524;10.938;2022-09-13T21:36:13;20.60;99.90
41256;DHT22;26989;45.524;10.938;2022-09-13T21:38:40;20.60;99.90
41256;DHT22;26989;45.524;10.938;2022-09-13T21:41:15;20.60;99.90
41256;DHT22;26989;45.524;10.938;2022-09-13T21:43:43;20.40;99.90
41256;DHT22;26989;45.524;10.938;2022-09-13T21:46:11;20.50;99.90
41256;DHT22;26989;45.524;10.938;2022-09-13T21:48:44;20.60;99.90
41256;DHT22;26989;45.524;10.938;2022-09-13T21:51:23;20.60;99.90
41256;DHT22;26989;45.524;10.938;2022-09-13T21:53:52;20.40;99.90
41256;DHT22;26989;45.524;10.938;2022-09-13T21:56:26;20.40;99.90
41256;DHT22;26989;45.524;10.938;2022-09-13T21:58:55;20.40;99.90
41256;DHT22;26989;45.524;10.938;2022-09-13T22:01:30;20.40;99.90
41256;DHT22;26989;45.524;10.938;2022-09-13T22:03:59;20.40;99.90
41256;DHT22;26989;45.524;10.938;2022-09-13T22:06:26;20.50;99.90
41256;DHT22;26989;45.524;10.938;2022-09-13T22:09:01;20.50;99.90
41256;DHT22;26989;45.524;10.938;2022-09-13T22:11:30;20.60;99.90
41256;DHT22;26989;45.524;10.938;2022-09-13T22:13:59;20.50;99.90
41256;DHT22;26989;45.524;10.938;2022-09-13T22:16:28;20.70;99.90
41256;DHT22;26989;45.524;10.938;2022-09-13T22:18:57;20.80;99.90
41256;DHT22;26989;45.524;10.938;2022-09-13T22:21:28;20.80;99.90
41256;DHT22;26989;45.524;10.938;2022-09-13T22:23:55;20.80;99.90
41256;DHT22;26989;45.524;10.938;2022-09-13T22:26:25;21.00;99.90
41256;DHT22;26989;45.524;10.938;2022-09-13T22:28:53;20.90;99.90
41256;DHT22;26989;45.524;10.938;2022-09-13T22:31:23;20.90;99.90
41256;DHT22;26989;45.524;10.938;2022-09-13T22:33:50;21.00;99.90
41256;DHT22;26989;45.524;10.938;2022-09-13T22:36:18;21.00;99.90
41256;DHT22;26989;45.524;10.938;2022-09-13T22:38:46;20.90;99.90
41256;DHT22;26989;45.524;10.938;2022-09-13T22:41:29;20.80;99.90
41256;DHT22;26989;45.524;10.938;2022-09-13T22:44:00;20.70;99.90
41256;DHT22;26989;45.524;10.938;2022-09-13T22:46:36;20.80;99.90
41256;DHT22;26989;45.524;10.938;2022-09-13T22:49:04;20.90;99.90
41256;DHT22;26989;45.524;10.938;2022-09-13T22:51:32;20.90;99.90
41256;DHT22;26989;45.524;10.938;2022-09-13T22:53:59;20.80;99.90
41256;DHT22;26989;45.524;10.938;2022-09-13T22:56:33;20.90;99.90
41256;DHT22;26989;45.524;10.938;2022-09-13T23:01:29;20.90;99.90
41256;DHT22;26989;45.524;10.938;2022-09-13T23:03:58;20.90;99.90
41256;DHT22;26989;45.524;10.938;2022-09-13T23:06:26;20.90;99.90
41256;DHT22;26989;45.524;10.938;2022-09-13T23:08:55;20.90;99.90
41256;DHT22;26989;45.524;10.938;2022-09-13T23:11:29;21.00;99.90
41256;DHT22;26989;45.524;10.938;2022-09-13T23:14:02;21.10;99.90
41256;DHT22;26989;45.524;10.938;2022-09-13T23:16:32;21.20;99.90
41256;DHT22;26989;45.524;10.938;2022-09-13T23:19:00;21.10;99.90
41256;DHT22;26989;45.524;10.938;2022-09-13T23:21:30;21.10;99.90
41256;DHT22;26989;45.524;10.938;2022-09-13T23:23:58;21.10;99.90
41256;DHT22;26989;45.524;10.938;2022-09-13T23:26:26;21.10;99.90
41256;DHT22;26989;45.524;10.938;2022-09-13T23:28:58;21.10;99.90
41256;DHT22;26989;45.524;10.938;2022-09-13T23:31:32;21.10;99.90
41256;DHT22;26989;45.524;10.938;2022-09-13T23:34:02;21.10;99.90
41256;DHT22;26989;45.524;10.938;2022-09-13T23:36:31;21.00;99.90
41256;DHT22;26989;45.524;10.938;2022-09-13T23:39:00;21.00;99.90
41256;DHT22;26989;45.524;10.938;2022-09-13T23:41:29;20.80;99.90
41256;DHT22;26989;45.524;10.938;2022-09-13T23:43:57;20.70;99.90
41256;DHT22;26989;45.524;10.938;2022-09-13T23:46:24;20.70;99.90
41256;DHT22;26989;45.524;10.938;2022-09-13T23:48:51;20.60;99.90
41256;DHT22;26989;45.524;10.938;2022-09-13T23:51:22;20.50;99.90
41256;DHT22;26989;45.524;10.938;2022-09-13T23:53:51;20.50;99.90
41256;DHT22;26989;45.524;10.938;2022-09-13T23:56:18;20.50;99.90
41256;DHT22;26989;45.524;10.938;2022-09-13T23:58:45;20.60;99.90
